Terminal Aerodrome Forecast
Issued by NWS Shreveport, LA

Home | Current Version | Previous Version | Text Only | Print | Product List | Glossary On
Versions: 1 2 3 4 5 6 7 8 9 10 11 12 13 14 15 16
000
FTUS44 KSHV 171906 AAA
TAFTYR
TAF AMD
KTYR 171906Z 1719/1818 19005KT P6SM OVC005
     FM180000 14004KT P6SM BKN008
     FM180200 06004KT 3SM BR OVC004
     FM180900 VRB03KT 1/2SM FG OVC002
     FM181500 10003KT 5SM -SHRA BR OVC005=

USA.gov is the U.S. government's official web portal to all federal, state and local government web resources and services.